Time;durP1;ratioP1;P1;durP2;ratioP2;P2;SDS_P1;SDS_P2;PMS_P1;PMS_P2;Temp;Humidity;BMP_temperature;BMP_pressure;BME280_temperature;BME280_humidity;BME280_pressure;Samples;Min_cycle;Max_cycle;Signal;HPM_P1;HPM_P2
2024/01/01 00:00:47;;;;;;;81.80;56.00;;;6.50;1.00;;;;;;4980200;28;20270;-46
2024/01/01 00:03:13;;;;;;;75.77;54.07;;;6.50;1.00;;;;;;4974588;28;20444;-47
2024/01/01 00:05:38;;;;;;;68.87;48.67;;;6.50;1.00;;;;;;4962123;28;20188;-55
2024/01/01 00:08:05;;;;;;;70.63;49.73;;;6.50;1.00;;;;;;4974162;28;20246;-49
2024/01/01 00:10:30;;;;;;;86.83;59.10;;;6.50;1.00;;;;;;4979746;28;20678;-45
2024/01/01 00:12:56;;;;;;;76.00;52.37;;;6.40;1.00;;;;;;4974299;28;20428;-43
2024/01/01 00:15:21;;;;;;;61.97;43.83;;;6.40;1.00;;;;;;4979688;28;20218;-55
2024/01/01 00:17:47;;;;;;;52.70;39.90;;;6.40;1.00;;;;;;4976457;28;20883;-47
2024/01/01 00:20:12;;;;;;;48.63;39.57;;;6.40;1.00;;;;;;4978433;28;20285;-55
2024/01/01 00:22:38;;;;;;;48.33;36.07;;;6.40;1.00;;;;;;4979920;28;20183;-50
2024/01/01 00:25:04;;;;;;;47.90;36.90;;;6.40;1.00;;;;;;4979900;28;20184;-54
2024/01/01 00:27:33;;;;;;;44.90;35.50;;;6.40;1.00;;;;;;4976110;28;20200;-44
2024/01/01 00:29:59;;;;;;;49.47;36.30;;;6.40;1.00;;;;;;4974962;28;20849;-50
2024/01/01 00:32:25;;;;;;;45.30;34.92;;;6.40;1.00;;;;;;4974282;28;20439;-37
2024/01/01 00:34:50;;;;;;;48.83;34.43;;;6.40;1.00;;;;;;4966887;28;20207;-37
2024/01/01 00:37:16;;;;;;;50.57;36.17;;;6.40;1.00;;;;;;4971927;28;20223;-38
2024/01/01 00:39:42;;;;;;;47.23;34.70;;;6.40;1.00;;;;;;4955369;28;20194;-36
2024/01/01 00:42:08;;;;;;;46.75;34.33;;;6.40;1.00;;;;;;4957810;28;20192;-56
2024/01/01 00:44:34;;;;;;;42.37;32.10;;;6.40;1.00;;;;;;4979591;28;20234;-53
2024/01/01 00:46:59;;;;;;;50.87;34.77;;;6.40;1.00;;;;;;4977773;28;20478;-55
2024/01/01 00:49:25;;;;;;;53.87;38.57;;;6.40;1.00;;;;;;4978879;28;20192;-53
2024/01/01 00:51:51;;;;;;;46.40;36.10;;;6.40;1.00;;;;;;4977982;28;20176;-52
2024/01/01 00:54:16;;;;;;;50.83;35.77;;;6.40;1.00;;;;;;4975915;28;20196;-56
2024/01/01 00:56:42;;;;;;;46.67;35.13;;;6.40;1.00;;;;;;4962882;28;20187;-53
2024/01/01 00:59:07;;;;;;;44.87;32.83;;;6.40;1.00;;;;;;4980114;28;20188;-55
2024/01/01 01:01:33;;;;;;;43.10;33.33;;;6.40;1.00;;;;;;4980441;28;20682;-55
2024/01/01 01:03:59;;;;;;;45.50;31.50;;;6.30;1.00;;;;;;4978977;28;20192;-53
2024/01/01 01:06:24;;;;;;;34.80;30.17;;;6.30;1.00;;;;;;4979104;28;20270;-55
2024/01/01 01:08:50;;;;;;;37.27;31.90;;;6.30;1.00;;;;;;4980437;28;20183;-54
2024/01/01 01:11:16;;;;;;;40.07;30.83;;;6.30;1.00;;;;;;4963227;28;20241;-46
2024/01/01 01:13:41;;;;;;;41.47;31.13;;;6.30;1.00;;;;;;4977750;28;20192;-53
2024/01/01 01:16:07;;;;;;;41.90;32.47;;;6.30;1.00;;;;;;4978113;28;20199;-55
2024/01/01 01:18:32;;;;;;;37.10;30.17;;;6.30;1.00;;;;;;4980146;28;20198;-52
2024/01/01 01:20:58;;;;;;;43.93;34.13;;;6.30;99.90;;;;;;4969202;28;20251;-36
2024/01/01 01:23:23;;;;;;;43.67;35.40;;;6.30;99.90;;;;;;4971339;28;20708;-36
2024/01/01 01:25:49;;;;;;;49.20;34.33;;;6.20;99.90;;;;;;4961883;28;20251;-37
2024/01/01 01:28:24;;;;;;;53.10;37.70;;;6.20;1.00;;;;;;4965064;28;20786;-36
2024/01/01 01:30:50;;;;;;;44.53;35.50;;;6.20;1.00;;;;;;4964683;28;20548;-36
2024/01/01 01:33:16;;;;;;;45.67;35.57;;;6.20;1.00;;;;;;4963949;28;20431;-49
2024/01/01 01:35:42;;;;;;;43.70;34.07;;;6.20;1.00;;;;;;4980794;28;20646;-50
2024/01/01 01:38:07;;;;;;;41.70;33.10;;;6.20;1.00;;;;;;4967637;28;20422;-53
2024/01/01 01:40:33;;;;;;;35.20;30.13;;;6.20;1.00;;;;;;4963779;28;20717;-56
2024/01/01 01:42:59;;;;;;;36.20;28.07;;;6.20;1.00;;;;;;4972945;28;20630;-53
2024/01/01 01:45:25;;;;;;;32.23;28.40;;;6.20;99.90;;;;;;4973408;28;20227;-56
2024/01/01 01:47:52;;;;;;;33.20;28.00;;;6.20;99.90;;;;;;4965436;28;20219;-55
2024/01/01 01:50:18;;;;;;;35.63;28.27;;;6.20;99.90;;;;;;4970787;28;20435;-56
2024/01/01 01:52:44;;;;;;;29.33;25.80;;;6.20;1.00;;;;;;4979236;28;20529;-55
2024/01/01 01:55:11;;;;;;;37.67;27.10;;;6.30;1.00;;;;;;4967812;28;20782;-53
2024/01/01 01:57:40;;;;;;;34.90;26.67;;;6.30;1.00;;;;;;4980006;28;20199;-56
2024/01/01 02:00:06;;;;;;;30.80;26.13;;;6.30;1.00;;;;;;4974312;28;20208;-50
2024/01/01 02:02:37;;;;;;;32.03;25.53;;;6.40;1.00;;;;;;4970165;28;20518;-53
2024/01/01 02:05:06;;;;;;;35.17;24.90;;;6.30;1.00;;;;;;4969648;28;20420;-54
2024/01/01 02:07:32;;;;;;;32.10;25.80;;;6.30;1.00;;;;;;4979900;28;20467;-52
2024/01/01 02:09:58;;;;;;;26.87;23.90;;;6.30;1.00;;;;;;4968115;28;20498;-52
2024/01/01 02:12:23;;;;;;;32.55;24.65;;;6.30;1.00;;;;;;4974125;28;20650;-55
2024/01/01 02:14:49;;;;;;;28.33;23.20;;;6.30;1.00;;;;;;4946402;28;20272;-54
2024/01/01 02:17:16;;;;;;;28.67;24.50;;;6.40;1.00;;;;;;4974887;28;20196;-55
2024/01/01 02:19:42;;;;;;;26.00;22.65;;;6.30;1.00;;;;;;4966645;28;20659;-54
2024/01/01 02:22:08;;;;;;;32.30;24.33;;;6.30;1.00;;;;;;4964518;28;20195;-55
2024/01/01 02:24:33;;;;;;;30.13;23.20;;;6.30;1.00;;;;;;4963562;28;20229;-51
2024/01/01 02:26:59;;;;;;;26.70;23.87;;;6.40;99.90;;;;;;4970524;28;20209;-49
2024/01/01 02:29:25;;;;;;;28.00;23.27;;;6.30;99.90;;;;;;4981432;28;21097;-37
2024/01/01 02:31:50;;;;;;;33.37;25.10;;;6.30;99.90;;;;;;4971972;28;20191;-35
2024/01/01 02:34:19;;;;;;;33.10;24.17;;;6.30;99.90;;;;;;4981716;28;20206;-39
2024/01/01 02:36:45;;;;;;;30.23;22.65;;;6.30;99.90;;;;;;4968523;28;21060;-35
2024/01/01 02:39:11;;;;;;;31.77;24.23;;;6.30;99.90;;;;;;4945767;28;20189;-35
2024/01/01 02:41:37;;;;;;;24.67;22.00;;;6.30;99.90;;;;;;4967928;28;20199;-35
2024/01/01 02:44:03;;;;;;;31.40;24.23;;;6.20;99.90;;;;;;4966001;28;20184;-36
2024/01/01 02:46:29;;;;;;;28.47;22.77;;;6.20;99.90;;;;;;4965923;28;20463;-36
2024/01/01 02:48:55;;;;;;;28.87;22.60;;;6.20;1.00;;;;;;4974644;28;20497;-37
2024/01/01 02:51:20;;;;;;;28.97;21.27;;;6.20;1.00;;;;;;4969914;28;21074;-35
2024/01/01 02:53:46;;;;;;;26.03;21.17;;;6.20;1.00;;;;;;4966953;28;20222;-36
2024/01/01 02:56:16;;;;;;;23.77;21.37;;;6.20;99.90;;;;;;4966581;28;20185;-36
2024/01/01 02:58:42;;;;;;;24.73;22.07;;;6.20;1.00;;;;;;4970516;28;21318;-36
2024/01/01 03:01:08;;;;;;;25.33;21.93;;;6.20;1.00;;;;;;4970818;28;20430;-36
2024/01/01 03:03:33;;;;;;;26.30;21.10;;;6.10;1.00;;;;;;4969093;28;20655;-35
2024/01/01 03:05:59;;;;;;;22.97;20.53;;;6.10;1.00;;;;;;4964612;28;20368;-35
2024/01/01 03:08:24;;;;;;;21.93;19.70;;;6.10;1.00;;;;;;4962763;28;20643;-35
2024/01/01 03:10:50;;;;;;;26.27;20.37;;;6.10;1.00;;;;;;4961392;28;20184;-35
2024/01/01 03:13:16;;;;;;;23.73;19.53;;;6.10;1.00;;;;;;4965677;28;20188;-36
2024/01/01 03:15:41;;;;;;;24.50;21.23;;;6.10;1.00;;;;;;4968456;28;20188;-36
2024/01/01 03:18:10;;;;;;;24.17;21.53;;;6.10;1.00;;;;;;4968680;28;20275;-36
2024/01/01 03:20:35;;;;;;;24.63;20.53;;;6.10;1.00;;;;;;4975055;28;20227;-36
2024/01/01 03:23:01;;;;;;;21.53;19.23;;;6.10;1.00;;;;;;4962085;28;20435;-35
2024/01/01 03:25:26;;;;;;;23.70;21.27;;;6.10;23.20;;;;;;4962929;28;20240;-35
2024/01/01 03:27:52;;;;;;;30.03;20.30;;;6.10;1.00;;;;;;4962295;28;20250;-38
2024/01/01 03:30:19;;;;;;;22.30;19.93;;;6.10;1.00;;;;;;4962748;28;21116;-37
2024/01/01 03:32:46;;;;;;;23.83;19.70;;;6.10;49.20;;;;;;4962972;28;20885;-37
2024/01/01 03:35:11;;;;;;;23.40;19.90;;;6.00;22.60;;;;;;4945273;28;20246;-36
2024/01/01 03:37:37;;;;;;;22.50;20.10;;;6.10;83.70;;;;;;4974737;28;20431;-37
2024/01/01 03:40:03;;;;;;;24.23;19.70;;;6.10;99.90;;;;;;4980164;28;20187;-37
2024/01/01 03:42:29;;;;;;;21.85;19.48;;;6.00;55.90;;;;;;4965819;28;20200;-37
2024/01/01 03:44:55;;;;;;;25.00;20.97;;;6.00;99.90;;;;;;4968739;28;20195;-36
2024/01/01 03:47:20;;;;;;;25.23;20.60;;;6.00;99.90;;;;;;4963895;28;20247;-37
2024/01/01 03:49:46;;;;;;;22.83;20.37;;;6.00;99.90;;;;;;4974658;28;20187;-36
2024/01/01 03:52:11;;;;;;;22.90;19.80;;;6.00;99.90;;;;;;4974212;28;20649;-37
2024/01/01 03:54:37;;;;;;;22.13;19.93;;;6.00;99.90;;;;;;4980877;28;20187;-36
2024/01/01 03:57:03;;;;;;;23.30;20.33;;;6.00;99.90;;;;;;4972570;28;20180;-36
2024/01/01 03:59:28;;;;;;;25.33;20.60;;;6.00;99.90;;;;;;4963768;28;20279;-37
2024/01/01 04:01:54;;;;;;;20.93;18.83;;;5.90;99.90;;;;;;4969108;28;20509;-36
2024/01/01 04:04:20;;;;;;;21.27;19.00;;;5.90;99.90;;;;;;4964510;28;20295;-38
2024/01/01 04:06:45;;;;;;;22.20;19.90;;;5.90;99.90;;;;;;4962971;28;20235;-37
2024/01/01 04:09:11;;;;;;;18.93;17.23;;;5.80;99.90;;;;;;4975545;28;20423;-36
2024/01/01 04:11:37;;;;;;;22.20;19.90;;;5.80;99.90;;;;;;4973877;28;20184;-36
2024/01/01 04:14:02;;;;;;;22.23;20.03;;;5.80;99.90;;;;;;4961426;28;20184;-36
2024/01/01 04:16:28;;;;;;;21.63;19.13;;;5.70;1.00;;;;;;4961769;28;20633;-36
2024/01/01 04:18:54;;;;;;;22.77;19.50;;;5.70;1.00;;;;;;4973946;28;20427;-36
2024/01/01 04:21:19;;;;;;;21.30;18.93;;;5.70;1.00;;;;;;4963349;28;20279;-37
2024/01/01 04:23:45;;;;;;;21.43;19.10;;;5.70;1.00;;;;;;4969186;28;20625;-37
2024/01/01 04:26:13;;;;;;;20.67;18.57;;;5.80;1.00;;;;;;4980211;28;20183;-36
2024/01/01 04:28:38;;;;;;;22.02;19.73;;;5.70;1.00;;;;;;4968166;28;20178;-35
2024/01/01 04:31:04;;;;;;;21.80;19.50;;;5.80;1.00;;;;;;4977350;28;20188;-36
2024/01/01 04:33:29;;;;;;;21.60;19.33;;;5.70;1.00;;;;;;4964779;28;20267;-37
2024/01/01 04:35:55;;;;;;;20.47;17.90;;;5.70;1.00;;;;;;4961607;28;20184;-35
2024/01/01 04:38:20;;;;;;;23.37;18.00;;;5.70;1.00;;;;;;4962372;28;20750;-35
2024/01/01 04:40:46;;;;;;;20.93;18.73;;;5.70;1.00;;;;;;4968551;28;20541;-36
2024/01/01 04:43:12;;;;;;;19.80;17.90;;;5.60;1.00;;;;;;4977668;28;20192;-36
2024/01/01 04:45:37;;;;;;;22.07;19.70;;;5.60;1.00;;;;;;4972348;28;20199;-36
2024/01/01 04:48:04;;;;;;;22.40;19.40;;;5.50;1.00;;;;;;4970278;28;20802;-36
2024/01/01 04:50:31;;;;;;;21.63;18.27;;;5.50;1.00;;;;;;4961542;28;20192;-36
2024/01/01 04:52:57;;;;;;;22.08;19.77;;;5.50;1.00;;;;;;4961631;28;20184;-36
2024/01/01 04:55:22;;;;;;;26.13;19.27;;;5.40;1.00;;;;;;4976912;28;20188;-35
2024/01/01 04:57:48;;;;;;;21.00;18.80;;;5.30;1.00;;;;;;4972491;28;20187;-36
2024/01/01 05:00:14;;;;;;;21.43;18.40;;;5.30;1.00;;;;;;4961269;28;20197;-36
2024/01/01 05:02:40;;;;;;;20.85;18.67;;;5.30;1.00;;;;;;4967482;28;20211;-35
2024/01/01 05:05:08;;;;;;;19.87;17.93;;;5.20;1.00;;;;;;4971815;28;20552;-36
2024/01/01 05:07:34;;;;;;;19.58;17.70;;;5.20;1.00;;;;;;4972721;28;20200;-37
2024/01/01 05:10:00;;;;;;;22.05;18.92;;;5.10;1.00;;;;;;4973894;28;20185;-36
2024/01/01 05:12:25;;;;;;;21.33;19.10;;;5.10;1.00;;;;;;4971170;28;20566;-36
2024/01/01 05:14:51;;;;;;;20.30;18.20;;;5.10;1.00;;;;;;4964851;28;20192;-36
2024/01/01 05:17:17;;;;;;;20.63;18.43;;;5.00;1.00;;;;;;4963432;28;20195;-36
2024/01/01 05:19:42;;;;;;;20.10;17.90;;;5.00;1.00;;;;;;4979282;28;20253;-36
2024/01/01 05:22:08;;;;;;;19.70;17.30;;;4.90;1.00;;;;;;4950209;28;20243;-36
2024/01/01 05:24:35;;;;;;;18.33;16.73;;;4.90;1.00;;;;;;4970266;28;20193;-36
2024/01/01 05:27:03;;;;;;;20.60;18.42;;;4.90;1.00;;;;;;4976401;28;20246;-37
2024/01/01 05:29:30;;;;;;;19.38;17.55;;;4.90;1.00;;;;;;4975311;28;20668;-36
2024/01/01 05:31:56;;;;;;;23.48;18.75;;;4.90;1.00;;;;;;4964517;28;20189;-36
2024/01/01 05:34:22;;;;;;;19.30;17.60;;;4.80;1.00;;;;;;4964727;28;20196;-36
2024/01/01 05:36:47;;;;;;;19.10;17.15;;;4.80;1.00;;;;;;4967161;28;20208;-37
2024/01/01 05:39:13;;;;;;;19.77;17.87;;;4.80;1.00;;;;;;4976967;28;20610;-36
2024/01/01 05:41:38;;;;;;;18.83;16.90;;;4.80;1.00;;;;;;4981316;28;20184;-36
2024/01/01 05:44:04;;;;;;;17.83;16.30;;;4.70;1.00;;;;;;4971370;28;20275;-38
2024/01/01 05:46:31;;;;;;;16.80;15.30;;;4.80;1.00;;;;;;4963726;28;21111;-37
2024/01/01 05:48:57;;;;;;;16.70;15.13;;;4.90;1.00;;;;;;4964492;28;20169;-37
2024/01/01 05:51:22;;;;;;;16.52;15.13;;;5.00;1.00;;;;;;4977105;28;20195;-36
2024/01/01 05:53:48;;;;;;;17.63;15.97;;;5.10;1.00;;;;;;4970995;28;21069;-35
2024/01/01 05:56:13;;;;;;;18.00;16.13;;;5.20;1.00;;;;;;4974087;28;20191;-35
2024/01/01 05:58:39;;;;;;;17.70;16.20;;;5.30;1.00;;;;;;4964344;28;20185;-35
2024/01/01 06:01:05;;;;;;;16.53;15.13;;;5.30;1.00;;;;;;4968420;28;20180;-36
2024/01/01 06:03:31;;;;;;;17.23;15.77;;;5.50;1.00;;;;;;4974428;28;20590;-37
2024/01/01 06:05:56;;;;;;;16.93;15.43;;;5.60;1.00;;;;;;4975589;28;20995;-36
2024/01/01 06:08:22;;;;;;;17.83;16.00;;;5.60;1.00;;;;;;4979534;28;20212;-36
2024/01/01 06:10:47;;;;;;;17.30;15.60;;;5.70;1.00;;;;;;4964825;28;20184;-36
2024/01/01 06:13:14;;;;;;;18.87;16.93;;;5.80;1.00;;;;;;4964571;28;20180;-37
2024/01/01 06:15:40;;;;;;;18.35;16.65;;;5.90;99.90;;;;;;4968565;28;20992;-36
2024/01/01 06:18:06;;;;;;;19.27;17.43;;;5.90;99.90;;;;;;4977510;28;20247;-36
2024/01/01 06:20:32;;;;;;;18.47;16.50;;;6.00;99.90;;;;;;4977895;28;20467;-38
2024/01/01 06:22:57;;;;;;;18.73;16.93;;;6.00;99.90;;;;;;4963597;28;20223;-36
2024/01/01 06:25:23;;;;;;;18.80;16.93;;;6.10;99.90;;;;;;4977922;28;20209;-37
2024/01/01 06:27:50;;;;;;;16.80;15.47;;;6.10;53.40;;;;;;4982145;28;20211;-36
2024/01/01 06:30:15;;;;;;;18.20;16.50;;;6.10;36.20;;;;;;4978616;28;20281;-36
2024/01/01 06:32:41;;;;;;;18.57;16.77;;;6.10;1.00;;;;;;4968563;28;20279;-36
2024/01/01 06:35:07;;;;;;;18.63;16.93;;;6.10;1.00;;;;;;4968436;28;20184;-37
2024/01/01 06:37:33;;;;;;;18.63;16.53;;;6.10;1.00;;;;;;4960219;28;21050;-56
2024/01/01 06:39:59;;;;;;;18.70;17.00;;;6.10;1.00;;;;;;4965291;28;20506;-54
2024/01/01 06:42:24;;;;;;;18.77;16.93;;;6.20;1.00;;;;;;4973108;28;20223;-56
2024/01/01 06:44:50;;;;;;;18.40;16.80;;;6.10;1.00;;;;;;4972480;28;20188;-57
2024/01/01 06:47:15;;;;;;;18.97;16.97;;;6.10;1.00;;;;;;4964484;28;20784;-47
2024/01/01 06:49:41;;;;;;;17.87;16.13;;;6.10;1.00;;;;;;4973963;28;20267;-56
2024/01/01 06:52:07;;;;;;;18.83;17.03;;;6.10;1.00;;;;;;4962874;28;20188;-51
2024/01/01 06:54:33;;;;;;;17.75;16.15;;;6.10;1.00;;;;;;4963728;28;20187;-45
2024/01/01 06:56:58;;;;;;;18.10;16.50;;;6.20;1.00;;;;;;4963596;28;20193;-56
2024/01/01 06:59:28;;;;;;;19.17;17.27;;;6.20;1.00;;;;;;4963119;28;20195;-55
2024/01/01 07:01:54;;;;;;;16.27;14.87;;;6.20;99.90;;;;;;4968723;28;20220;-55
2024/01/01 07:04:19;;;;;;;17.80;16.20;;;6.30;99.90;;;;;;4964214;28;20867;-54
2024/01/01 07:06:45;;;;;;;17.27;15.77;;;6.30;1.00;;;;;;4962491;28;20207;-55
2024/01/01 07:09:10;;;;;;;17.20;15.60;;;6.30;1.00;;;;;;4967654;28;20259;-57
2024/01/01 07:11:36;;;;;;;17.07;15.60;;;6.30;1.00;;;;;;4974340;28;20192;-54
2024/01/01 07:14:03;;;;;;;16.77;15.27;;;6.30;1.00;;;;;;4980033;28;20270;-45
2024/01/01 07:16:29;;;;;;;16.80;15.40;;;6.30;99.90;;;;;;4973714;28;20192;-54
2024/01/01 07:18:54;;;;;;;18.20;16.40;;;6.40;99.90;;;;;;4968154;28;20420;-56
2024/01/01 07:21:20;;;;;;;16.43;15.03;;;6.40;1.00;;;;;;4965138;28;20537;-53
2024/01/01 07:23:46;;;;;;;16.30;15.10;;;6.40;99.90;;;;;;4972570;28;20430;-57
2024/01/01 07:26:11;;;;;;;16.77;15.20;;;6.50;99.90;;;;;;4971525;28;21016;-54
2024/01/01 07:28:37;;;;;;;16.00;14.50;;;6.50;1.00;;;;;;4971291;28;20204;-57
2024/01/01 07:31:03;;;;;;;16.07;14.70;;;6.50;1.00;;;;;;4971351;28;20226;-56
2024/01/01 07:33:28;;;;;;;16.40;14.97;;;6.60;1.00;;;;;;4969265;28;20246;-58
2024/01/01 07:35:54;;;;;;;15.90;14.50;;;6.70;99.90;;;;;;4963078;28;20236;-57
2024/01/01 07:38:20;;;;;;;16.10;14.80;;;6.60;1.00;;;;;;4962878;28;20188;-54
2024/01/01 07:40:46;;;;;;;17.30;15.70;;;6.60;36.00;;;;;;4971928;28;20916;-51
2024/01/01 07:43:11;;;;;;;15.17;13.93;;;6.70;1.00;;;;;;4968843;28;20211;-55
2024/01/01 07:45:37;;;;;;;17.57;15.97;;;6.70;1.00;;;;;;4964958;28;20192;-57
2024/01/01 07:48:02;;;;;;;16.40;14.83;;;6.80;99.90;;;;;;4963511;28;20973;-55
2024/01/01 07:50:28;;;;;;;16.30;14.90;;;6.80;99.90;;;;;;4965284;28;20282;-55
2024/01/01 07:52:54;;;;;;;16.87;15.30;;;6.80;99.90;;;;;;4952784;28;20192;-57
2024/01/01 07:55:20;;;;;;;15.17;13.93;;;6.80;99.90;;;;;;4966525;28;20192;-57
2024/01/01 07:57:49;;;;;;;16.53;15.17;;;6.80;18.50;;;;;;4967449;28;20177;-57
2024/01/01 08:00:15;;;;;;;17.27;15.67;;;6.90;99.90;;;;;;4972761;28;20424;-57
2024/01/01 08:02:43;;;;;;;16.97;15.57;;;6.90;1.00;;;;;;4965676;28;20830;-58
2024/01/01 08:05:08;;;;;;;17.47;16.03;;;6.90;1.00;;;;;;4966907;28;20411;-57
2024/01/01 08:07:34;;;;;;;16.73;15.30;;;6.80;1.00;;;;;;4970004;28;20485;-55
2024/01/01 08:10:00;;;;;;;18.27;16.47;;;6.80;1.00;;;;;;4963926;28;20184;-56
2024/01/01 08:12:26;;;;;;;17.33;15.93;;;6.80;1.00;;;;;;4962259;28;20184;-53
2024/01/01 08:14:51;;;;;;;16.73;15.33;;;6.90;1.00;;;;;;4945660;28;20452;-37
2024/01/01 08:17:17;;;;;;;16.83;15.30;;;6.90;1.00;;;;;;4968089;28;20426;-37
2024/01/01 08:19:42;;;;;;;16.50;15.13;;;6.90;1.00;;;;;;4965378;28;20236;-36
2024/01/01 08:22:08;;;;;;;16.53;15.20;;;7.00;1.00;;;;;;4962471;28;20188;-37
2024/01/01 08:24:34;;;;;;;14.67;13.57;;;7.00;1.00;;;;;;4978994;28;20223;-38
2024/01/01 08:26:59;;;;;;;15.50;14.30;;;7.10;1.00;;;;;;4971912;28;20207;-38
2024/01/01 08:29:25;;;;;;;15.20;14.13;;;7.00;99.90;;;;;;4970434;28;20722;-36
2024/01/01 08:31:50;;;;;;;15.53;14.23;;;7.10;99.90;;;;;;4963196;28;20184;-36
2024/01/01 08:34:16;;;;;;;14.07;12.97;;;7.10;86.10;;;;;;4961449;28;20581;-38
2024/01/01 08:36:42;;;;;;;15.80;14.50;;;7.10;1.00;;;;;;4949531;28;20190;-37
2024/01/01 08:39:09;;;;;;;15.60;14.30;;;7.20;1.00;;;;;;4967658;28;20267;-38
2024/01/01 08:41:41;;;;;;;15.60;14.30;;;7.20;1.00;;;;;;4976683;28;20652;-36
2024/01/01 08:44:07;;;;;;;15.20;13.97;;;7.20;1.00;;;;;;4957314;28;20435;-37
2024/01/01 08:46:33;;;;;;;16.07;14.70;;;7.30;1.00;;;;;;4969259;28;20482;-37
2024/01/01 08:48:58;;;;;;;16.07;14.57;;;7.40;1.00;;;;;;4968362;28;20404;-37
2024/01/01 08:51:24;;;;;;;16.07;14.87;;;7.50;1.00;;;;;;4966691;28;20189;-36
2024/01/01 08:53:50;;;;;;;17.00;15.37;;;7.60;1.00;;;;;;4967234;28;20180;-36
2024/01/01 08:56:15;;;;;;;15.37;14.07;;;7.60;99.90;;;;;;4968927;28;20238;-37
2024/01/01 08:58:41;;;;;;;16.90;15.43;;;7.70;99.90;;;;;;4970207;28;20189;-36
2024/01/01 09:01:06;;;;;;;15.67;14.30;;;7.80;64.90;;;;;;4978556;28;20176;-39
2024/01/01 09:03:32;;;;;;;14.50;13.30;;;7.90;1.00;;;;;;4965306;28;20189;-37
2024/01/01 09:05:58;;;;;;;13.20;12.10;;;8.00;1.00;;;;;;4961979;28;20184;-36
2024/01/01 09:08:24;;;;;;;14.10;13.00;;;8.10;1.00;;;;;;4969711;28;20266;-36
2024/01/01 09:10:50;;;;;;;14.80;13.63;;;8.30;99.90;;;;;;4979703;28;20416;-35
2024/01/01 09:13:16;;;;;;;14.93;13.73;;;8.40;99.90;;;;;;4970072;28;20799;-36
2024/01/01 09:15:42;;;;;;;14.97;13.77;;;8.60;99.90;;;;;;4949844;28;20227;-35
2024/01/01 09:18:07;;;;;;;14.50;13.37;;;8.70;99.90;;;;;;4965505;28;20195;-36
2024/01/01 09:20:34;;;;;;;13.70;12.70;;;8.80;99.90;;;;;;4972133;28;20314;-35
2024/01/01 09:22:59;;;;;;;13.80;12.80;;;8.80;16.50;;;;;;4965034;28;20215;-36
2024/01/01 09:25:25;;;;;;;14.37;13.17;;;9.10;1.00;;;;;;4966313;28;20437;-37
2024/01/01 09:27:51;;;;;;;12.13;11.43;;;9.30;1.00;;;;;;4969410;28;20252;-37
2024/01/01 09:30:17;;;;;;;13.03;12.13;;;9.50;1.00;;;;;;4976476;28;20180;-36
2024/01/01 09:32:42;;;;;;;13.13;11.80;;;9.60;1.00;;;;;;4957519;28;20195;-36
2024/01/01 09:35:08;;;;;;;12.47;11.47;;;9.50;1.00;;;;;;4964081;28;20926;-36
2024/01/01 09:37:35;;;;;;;11.63;10.83;;;9.30;1.00;;;;;;4971074;28;20187;-41
2024/01/01 09:40:01;;;;;;;11.53;10.83;;;9.50;1.00;;;;;;4973267;28;20941;-34
2024/01/01 09:42:26;;;;;;;12.20;11.30;;;9.50;1.00;;;;;;4963345;28;20424;-37
2024/01/01 09:44:53;;;;;;;11.97;11.17;;;9.70;1.00;;;;;;4969716;28;20858;-35
2024/01/01 09:47:19;;;;;;;13.33;12.13;;;9.80;1.00;;;;;;4968532;28;20205;-35
2024/01/01 09:49:45;;;;;;;12.63;11.63;;;9.80;1.00;;;;;;4979606;28;20434;-35
2024/01/01 09:52:14;;;;;;;12.10;11.10;;;10.00;1.00;;;;;;4967447;28;20437;-35
2024/01/01 09:54:42;;;;;;;12.70;11.70;;;10.20;1.00;;;;;;4969733;28;20214;-38
2024/01/01 09:57:08;;;;;;;11.23;10.63;;;10.50;1.00;;;;;;4973633;28;20455;-36
2024/01/01 09:59:39;;;;;;;13.13;12.23;;;10.90;1.00;;;;;;4969578;28;21317;-36
2024/01/01 10:02:09;;;;;;;12.10;11.30;;;11.30;1.00;;;;;;4966002;28;20499;-39
2024/01/01 10:04:35;;;;;;;11.63;10.80;;;11.60;1.00;;;;;;4968300;28;20455;-38
2024/01/01 10:07:01;;;;;;;11.90;11.20;;;12.10;1.00;;;;;;4963298;28;20467;-39
2024/01/01 10:09:27;;;;;;;12.10;11.30;;;12.70;1.00;;;;;;4948693;28;20455;-38
2024/01/01 10:12:07;;;;;;;11.80;11.10;;;12.60;1.00;;;;;;4963066;28;20412;-36
2024/01/01 10:14:33;;;;;;;11.00;10.20;;;12.70;99.90;;;;;;4967070;28;20423;-36
2024/01/01 10:17:17;;;;;;;11.33;10.77;;;12.80;99.90;;;;;;4973102;28;20432;-37
2024/01/01 10:20:02;;;;;;;12.97;11.97;;;12.80;99.90;;;;;;4965566;28;20717;-37
2024/01/01 10:22:32;;;;;;;12.50;11.60;;;13.10;99.90;;;;;;4965067;28;20416;-35
2024/01/01 10:25:11;;;;;;;12.43;11.63;;;13.30;99.90;;;;;;4963142;28;20428;-40
2024/01/01 10:27:38;;;;;;;12.60;11.80;;;13.50;99.90;;;;;;4970119;28;21056;-38
2024/01/01 10:30:04;;;;;;;11.90;10.80;;;13.40;99.90;;;;;;4974999;28;20404;-35
2024/01/01 10:32:30;;;;;;;11.80;11.10;;;12.90;99.90;;;;;;4965639;28;20931;-37
2024/01/01 10:35:01;;;;;;;14.27;13.37;;;13.30;99.90;;;;;;4980886;28;20419;-36
2024/01/01 10:37:28;;;;;;;11.67;10.97;;;13.60;99.90;;;;;;4973540;28;20435;-37
2024/01/01 10:39:54;;;;;;;11.53;10.83;;;13.90;99.90;;;;;;4964873;28;20792;-36
2024/01/01 10:42:20;;;;;;;11.50;10.80;;;13.90;99.90;;;;;;4972013;28;20518;-37
2024/01/01 10:44:46;;;;;;;10.40;9.80;;;13.70;99.90;;;;;;4956008;28;20453;-37
2024/01/01 10:47:14;;;;;;;11.33;10.53;;;13.40;99.90;;;;;;4964084;28;20204;-38
2024/01/01 10:49:50;;;;;;;11.20;10.50;;;14.00;99.90;;;;;;4968134;28;20195;-38
2024/01/01 10:52:55;;;;;;;11.50;10.80;;;14.30;99.90;;;;;;4968924;28;20423;-36
2024/01/01 10:55:20;;;;;;;11.27;10.67;;;14.00;99.90;;;;;;4964829;28;20479;-35
2024/01/01 10:57:53;;;;;;;10.90;10.20;;;13.90;99.90;;;;;;4962693;28;20436;-37
2024/01/01 11:00:32;;;;;;;11.50;10.80;;;14.20;99.90;;;;;;4972627;28;20203;-38
2024/01/01 11:02:59;;;;;;;12.43;11.50;;;13.90;99.90;;;;;;4967375;28;21653;-37
2024/01/01 11:05:33;;;;;;;10.90;10.27;;;13.80;99.90;;;;;;4965315;28;20484;-37
2024/01/01 11:08:00;;;;;;;11.07;10.47;;;14.60;99.90;;;;;;4964670;28;20906;-38
2024/01/01 11:10:43;;;;;;;11.60;10.97;;;15.00;99.90;;;;;;4966186;28;20429;-38
2024/01/01 11:13:13;;;;;;;11.90;11.30;;;15.40;99.90;;;;;;4973964;28;20511;-38
2024/01/01 11:15:48;;;;;;;11.20;10.70;;;15.00;99.90;;;;;;4960613;28;20476;-38
2024/01/01 11:18:18;;;;;;;10.90;10.30;;;14.40;99.90;;;;;;4965706;28;20446;-38
2024/01/01 11:20:57;;;;;;;10.10;9.60;;;14.20;99.90;;;;;;5085967;27;20608;-37
2024/01/01 11:23:42;;;;;;;10.67;10.07;;;13.80;99.90;;;;;;5067557;28;20926;-37
2024/01/01 11:26:23;;;;;;;11.47;10.93;;;13.00;99.90;;;;;;5062906;28;20415;-38
2024/01/01 11:29:00;;;;;;;10.87;10.07;;;12.60;99.90;;;;;;5068680;28;20422;-37
2024/01/01 11:31:27;;;;;;;11.50;10.60;;;12.30;99.90;;;;;;5066784;28;20414;-37
2024/01/01 11:34:05;;;;;;;10.83;10.30;;;11.60;99.90;;;;;;5061557;28;20404;-37
2024/01/01 11:36:31;;;;;;;10.53;10.00;;;11.60;99.90;;;;;;5058754;28;20402;-38
2024/01/01 11:38:57;;;;;;;11.70;10.90;;;11.60;99.90;;;;;;5059520;28;20466;-40
2024/01/01 11:41:30;;;;;;;10.13;9.63;;;11.40;99.90;;;;;;5068761;28;20416;-38
2024/01/01 11:44:12;;;;;;;10.07;9.30;;;11.20;99.90;;;;;;5061444;28;20403;-38
2024/01/01 11:46:38;;;;;;;10.40;9.90;;;11.30;99.90;;;;;;5067244;28;20447;-39
2024/01/01 11:49:04;;;;;;;10.63;10.13;;;11.30;99.90;;;;;;5065699;28;20836;-40
2024/01/01 11:51:32;;;;;;;11.40;10.80;;;11.50;99.90;;;;;;5064861;28;20522;-39
2024/01/01 11:54:04;;;;;;;11.40;10.60;;;11.50;99.90;;;;;;5074589;28;20649;-39
2024/01/01 11:56:30;;;;;;;10.70;10.00;;;11.50;99.90;;;;;;5070569;28;20423;-39
2024/01/01 11:58:57;;;;;;;11.13;10.60;;;11.30;99.90;;;;;;5062491;28;20475;-39
2024/01/01 12:01:23;;;;;;;11.03;10.43;;;10.90;99.90;;;;;;5068001;28;20418;-39
2024/01/01 12:03:49;;;;;;;10.67;10.17;;;10.80;99.90;;;;;;5066577;28;20508;-38
2024/01/01 12:06:15;;;;;;;10.57;9.97;;;10.80;99.90;;;;;;5069214;28;20418;-38
2024/01/01 12:08:41;;;;;;;10.53;10.03;;;10.70;99.90;;;;;;5062270;28;20251;-38
2024/01/01 12:11:07;;;;;;;10.03;9.53;;;10.70;99.90;;;;;;5060838;28;20436;-40
2024/01/01 12:13:33;;;;;;;11.47;10.73;;;10.60;99.90;;;;;;5065372;28;20446;-39
2024/01/01 12:16:16;;;;;;;10.90;10.30;;;10.50;99.90;;;;;;5061937;28;20299;-39
2024/01/01 12:18:41;;;;;;;11.20;10.60;;;10.20;99.90;;;;;;5065840;28;20264;-38
2024/01/01 12:21:07;;;;;;;10.47;10.00;;;10.30;99.90;;;;;;5067400;28;20434;-39
2024/01/01 12:23:32;;;;;;;11.20;10.40;;;10.20;99.90;;;;;;5066088;28;20238;-39
2024/01/01 12:26:05;;;;;;;11.47;10.87;;;10.40;99.90;;;;;;5073143;28;20185;-40
2024/01/01 12:28:30;;;;;;;10.13;9.63;;;10.60;99.90;;;;;;5062065;28;20173;-39
2024/01/01 12:30:59;;;;;;;9.73;9.33;;;10.70;99.90;;;;;;5055800;28;20438;-39
2024/01/01 12:33:25;;;;;;;10.30;9.80;;;10.80;99.90;;;;;;5047558;28;20189;-41
2024/01/01 12:35:51;;;;;;;11.00;10.27;;;10.80;99.90;;;;;;5059992;28;20472;-40
2024/01/01 12:38:16;;;;;;;11.30;10.60;;;11.10;99.90;;;;;;5057854;28;20193;-39